createdAt,value
2019-02-09T00:01:56.821Z,76.33
2019-02-09T00:04:27.140Z,76.47
2019-02-09T00:06:57.599Z,76.66
2019-02-09T00:09:27.304Z,77.21
2019-02-09T00:11:59.138Z,77.40
2019-02-09T00:14:29.596Z,77.40
2019-02-09T00:16:59.613Z,77.48
2019-02-09T00:19:29.394Z,78.63
2019-02-09T00:22:01.459Z,79.29
2019-02-09T00:24:31.162Z,78.99
2019-02-09T00:27:02.128Z,78.99
2019-02-09T00:29:31.854Z,79.58
2019-02-09T00:32:02.196Z,79.58
2019-02-09T00:34:31.937Z,79.74
2019-02-09T00:37:04.710Z,80.73
2019-02-09T00:39:35.009Z,81.41
2019-02-09T00:42:04.609Z,81.41
2019-02-09T00:44:34.224Z,82.29
2019-02-09T00:47:03.730Z,82.29
2019-02-09T00:49:33.304Z,83.05
2019-02-09T00:52:04.986Z,84.24
2019-02-09T00:54:35.083Z,84.51
2019-02-09T00:57:06.274Z,84.63
2019-02-09T00:59:36.290Z,84.63
2019-02-09T01:02:06.131Z,85.05
2019-02-09T01:04:36.088Z,85.37
2019-02-09T01:07:05.756Z,85.79
2019-02-09T01:09:35.888Z,85.67
2019-02-09T01:12:06.054Z,85.92
2019-02-09T01:14:36.123Z,86.85
2019-02-09T01:17:08.122Z,86.85
2019-02-09T01:19:38.031Z,86.96
2019-02-09T01:22:07.546Z,86.56
2019-02-09T01:24:37.968Z,86.99
2019-02-09T01:27:07.922Z,87.49
2019-02-09T01:29:37.934Z,87.49
2019-02-09T01:32:08.259Z,88.07
2019-02-09T01:34:38.078Z,88.11
2019-02-09T01:37:10.236Z,88.88
2019-02-09T01:39:39.928Z,88.88
2019-02-09T01:42:10.278Z,88.92
2019-02-09T01:44:40.089Z,89.59
2019-02-09T01:47:09.957Z,89.69
2019-02-09T01:49:40.088Z,89.73
2019-02-09T01:52:09.618Z,89.71
2019-02-09T01:54:40.131Z,89.98
2019-02-09T01:57:11.558Z,90.24
2019-02-09T01:59:41.230Z,90.24
2019-02-09T02:02:11.117Z,90.19
2019-02-09T02:04:40.732Z,89.83
2019-02-09T02:07:12.009Z,89.26
2019-02-09T02:09:42.184Z,89.42
2019-02-09T02:12:12.253Z,89.42
2019-02-09T02:14:41.767Z,89.57
2019-02-09T02:17:11.497Z,88.88
2019-02-09T02:19:41.382Z,89.14
2019-02-09T02:22:11.049Z,89.14
2019-02-09T02:31:05.172Z,89.60
2019-02-09T02:33:35.326Z,89.56
2019-02-09T02:36:05.196Z,89.56
2019-02-09T02:38:35.357Z,89.86
2019-02-09T02:41:05.235Z,90.03
2019-02-09T02:43:35.018Z,90.17
2019-02-09T02:46:05.138Z,90.11
2019-02-09T02:48:36.921Z,90.16
2019-02-09T02:51:08.226Z,90.52
2019-02-09T02:53:38.361Z,90.30
2019-02-09T02:56:08.073Z,90.30
2019-02-09T02:58:40.642Z,90.71
2019-02-09T03:01:10.717Z,90.79
2019-02-09T03:03:41.095Z,90.79
2019-02-09T03:06:10.892Z,90.44
2019-02-09T03:08:43.051Z,90.55
2019-02-09T03:11:13.030Z,90.49
2019-02-09T03:13:42.749Z,90.49
2019-02-09T03:16:13.195Z,91.02
2019-02-09T03:18:42.979Z,91.04
2019-02-09T03:21:12.991Z,91.04
2019-02-09T03:23:42.905Z,91.08
2019-02-09T03:26:12.686Z,90.95
2019-02-09T03:28:42.366Z,91.09
2019-02-09T03:31:12.459Z,91.20
2019-02-09T03:33:42.370Z,91.20
2019-02-09T03:36:12.044Z,91.23
2019-02-09T03:38:41.870Z,91.19
2019-02-09T03:41:11.677Z,91.19
2019-02-09T03:43:44.094Z,91.04
2019-02-09T03:46:13.896Z,90.80
2019-02-09T03:48:43.361Z,91.05
2019-02-09T03:51:13.832Z,91.25
2019-02-09T03:53:43.356Z,91.25
2019-02-09T03:56:13.019Z,91.02
2019-02-09T03:58:42.825Z,90.84
2019-02-09T04:01:14.670Z,90.84
2019-02-09T04:03:47.047Z,90.47
2019-02-09T04:06:19.645Z,90.14
2019-02-09T04:08:49.147Z,90.07
2019-02-09T04:11:18.490Z,89.30
2019-02-09T04:13:48.327Z,89.30
2019-02-09T04:16:17.938Z,89.15
2019-02-09T04:18:47.927Z,89.16
2019-02-09T04:21:20.320Z,89.16
2019-02-09T04:23:49.872Z,89.09
2019-02-09T04:26:21.582Z,89.83
2019-02-09T04:28:51.095Z,89.41
2019-02-09T04:31:21.619Z,89.29
2019-02-09T04:33:51.526Z,88.68
2019-02-09T04:36:21.441Z,88.46
2019-02-09T04:38:53.140Z,88.46
2019-02-09T04:41:24.391Z,88.80
2019-02-09T04:43:53.858Z,88.80
2019-02-09T04:46:23.377Z,87.96
2019-02-09T04:48:55.556Z,89.32
2019-02-09T04:51:24.919Z,88.65
2019-02-09T04:53:55.094Z,88.65
2019-02-09T04:56:26.319Z,87.83
2019-02-09T04:58:56.159Z,87.83
2019-02-09T05:01:27.369Z,87.00
2019-02-09T05:03:58.279Z,87.10
2019-02-09T05:06:28.179Z,87.10
2019-02-09T05:08:57.707Z,87.18
2019-02-09T05:11:27.013Z,86.59
2019-02-09T05:13:56.506Z,87.66
2019-02-09T05:16:29.077Z,88.02
2019-02-09T05:18:59.648Z,88.02
2019-02-09T05:21:29.346Z,87.48
2019-02-09T05:23:59.172Z,86.74
2019-02-09T05:26:29.157Z,87.37
2019-02-09T05:28:58.638Z,87.37
2019-02-09T05:31:29.771Z,86.87
2019-02-09T05:33:59.378Z,86.67
2019-02-09T05:36:28.880Z,87.10
2019-02-09T05:38:58.429Z,86.96
2019-02-09T05:41:28.087Z,87.06
2019-02-09T05:43:58.623Z,87.06
2019-02-09T05:46:28.610Z,86.42
2019-02-09T05:48:58.555Z,86.78
2019-02-09T05:51:28.079Z,85.85
2019-02-09T05:53:59.818Z,85.85
2019-02-09T05:56:29.388Z,86.48
2019-02-09T05:59:00.968Z,86.04
2019-02-09T06:01:32.353Z,86.27
2019-02-09T06:04:02.954Z,86.19
2019-02-09T06:06:32.495Z,86.19
2019-02-09T06:09:03.592Z,86.46
2019-02-09T06:11:35.147Z,86.24
2019-02-09T06:14:05.058Z,85.77
2019-02-09T06:16:37.024Z,86.08
2019-02-09T06:19:06.526Z,86.22
2019-02-09T06:21:36.133Z,86.99
2019-02-09T06:24:07.191Z,87.41
2019-02-09T06:26:36.671Z,86.51
2019-02-09T06:29:09.144Z,86.07
2019-02-09T06:31:42.670Z,86.07
2019-02-09T06:34:12.448Z,86.21
2019-02-09T06:36:44.376Z,86.61
2019-02-09T06:39:16.130Z,86.61
2019-02-09T06:41:48.379Z,85.94
2019-02-09T06:44:17.805Z,85.84
2019-02-09T06:46:47.241Z,85.84
2019-02-09T06:49:17.024Z,85.05
2019-02-09T06:51:46.601Z,85.52
2019-02-09T06:54:17.051Z,85.52
2019-02-09T06:56:48.435Z,85.67
2019-02-09T06:59:18.352Z,85.29
2019-02-09T07:01:52.463Z,85.29
2019-02-09T07:04:21.967Z,85.48
2019-02-09T07:06:51.551Z,84.97
2019-02-09T07:09:21.216Z,85.24
2019-02-09T07:11:51.188Z,85.38
2019-02-09T07:14:20.595Z,84.52
2019-02-09T07:16:50.092Z,84.52
2019-02-09T07:19:21.664Z,85.30
2019-02-09T07:21:52.315Z,84.64
2019-02-09T07:24:23.561Z,83.27
2019-02-09T07:26:54.661Z,83.31
2019-02-09T07:29:24.275Z,83.31
2019-02-09T07:31:56.590Z,83.09
2019-02-09T07:34:26.917Z,83.24
2019-02-09T07:36:56.515Z,82.49
2019-02-09T07:39:28.547Z,82.66
2019-02-09T07:41:58.626Z,82.66
2019-02-09T07:44:31.061Z,80.98
2019-02-09T07:47:01.099Z,81.54
2019-02-09T07:49:31.000Z,81.54
2019-02-09T07:52:00.358Z,80.39
2019-02-09T07:54:30.159Z,80.39
2019-02-09T07:57:02.324Z,80.76
2019-02-09T07:59:32.547Z,80.63
2019-02-09T08:02:04.711Z,79.95
2019-02-09T08:04:33.172Z,79.98
2019-02-09T08:07:02.946Z,80.15
2019-02-09T08:09:32.336Z,79.02
2019-02-09T08:12:02.347Z,79.02
2019-02-09T08:14:36.736Z,79.68
2019-02-09T08:17:09.683Z,80.13
2019-02-09T08:19:40.008Z,79.39
2019-02-09T08:22:09.692Z,79.27
2019-02-09T08:24:39.086Z,79.53
2019-02-09T08:27:12.299Z,79.53
2019-02-09T08:29:42.001Z,79.41
2019-02-09T08:32:13.083Z,78.11
2019-02-09T08:34:43.115Z,78.81
2019-02-09T08:37:12.613Z,78.34
2019-02-09T08:39:44.936Z,77.74
2019-02-09T08:42:20.331Z,77.50
2019-02-09T08:44:49.832Z,77.50
2019-02-09T08:47:22.591Z,77.91
2019-02-09T08:49:52.120Z,77.44
2019-02-09T08:52:24.485Z,77.44
2019-02-09T08:54:59.078Z,76.95
2019-02-09T08:57:28.594Z,77.10
2019-02-09T08:59:58.295Z,77.09
2019-02-09T09:02:27.937Z,76.18
2019-02-09T09:04:57.688Z,76.18
2019-02-09T09:07:27.597Z,76.42
2019-02-09T09:09:57.376Z,75.63
2019-02-09T09:12:26.700Z,75.63
2019-02-09T09:14:56.204Z,76.23
2019-02-09T09:17:26.127Z,74.88
2019-02-09T09:19:55.791Z,75.33
2019-02-09T09:22:25.102Z,74.62
2019-02-09T09:24:54.910Z,74.42
2019-02-09T09:27:24.519Z,74.42
2019-02-09T09:29:54.003Z,73.62
2019-02-09T09:32:28.645Z,73.75
2019-02-09T09:34:56.714Z,71.91
2019-02-09T09:37:28.530Z,71.12
2019-02-09T09:39:58.113Z,71.79
2019-02-09T09:42:27.819Z,72.27
2019-02-09T09:44:59.504Z,71.35
2019-02-09T09:47:29.083Z,71.29
2019-02-09T09:50:00.873Z,71.37
2019-02-09T09:52:30.295Z,71.37
2019-02-09T09:55:00.817Z,71.90
2019-02-09T09:57:35.987Z,71.33
2019-02-09T10:00:07.742Z,71.18
2019-02-09T10:02:38.793Z,71.67
2019-02-09T10:05:10.976Z,70.76
2019-02-09T10:07:40.903Z,69.94
2019-02-09T10:10:13.992Z,72.28
2019-02-09T10:12:44.059Z,71.80
2019-02-09T10:15:15.548Z,71.52
2019-02-09T10:17:45.309Z,70.65
2019-02-09T10:20:16.887Z,70.65
2019-02-09T10:22:49.140Z,70.01
2019-02-09T10:25:18.653Z,70.01
2019-02-09T10:27:48.043Z,70.19
2019-02-09T10:30:19.410Z,70.95
2019-02-09T10:32:52.336Z,70.48
2019-02-09T10:35:22.522Z,71.42
2019-02-09T10:37:53.559Z,69.40
2019-02-09T10:40:29.576Z,69.40
2019-02-09T10:43:00.334Z,69.25
2019-02-09T10:45:30.528Z,70.27
2019-02-09T10:48:02.471Z,70.01
2019-02-09T10:50:36.810Z,70.01
2019-02-09T10:53:06.721Z,69.66
2019-02-09T10:55:36.498Z,70.11
2019-02-09T10:58:06.649Z,68.60
2019-02-09T11:00:47.669Z,68.60
2019-02-09T11:03:19.281Z,69.39
2019-02-09T11:05:48.926Z,68.83
2019-02-09T11:08:18.296Z,68.41
2019-02-09T11:10:47.913Z,68.41
2019-02-09T11:13:18.207Z,67.78
2019-02-09T11:15:47.659Z,67.78
2019-02-09T11:18:17.546Z,68.27
2019-02-09T11:20:47.062Z,67.80
2019-02-09T11:23:18.992Z,68.86
2019-02-09T11:25:51.987Z,67.82
2019-02-09T11:28:21.551Z,67.81
2019-02-09T11:30:51.131Z,67.39
2019-02-09T11:33:21.963Z,67.39
2019-02-09T11:35:51.796Z,67.98
2019-02-09T11:38:21.854Z,67.99
2019-02-09T11:40:52.140Z,67.99
2019-02-09T11:43:22.133Z,68.04
2019-02-09T11:45:51.888Z,67.08
2019-02-09T11:48:22.011Z,67.19
2019-02-09T11:50:53.850Z,66.14
2019-02-09T11:53:24.420Z,66.14
2019-02-09T11:55:54.113Z,66.35
2019-02-09T11:58:25.926Z,66.35
2019-02-09T12:00:55.934Z,66.34
2019-02-09T12:03:25.963Z,66.45
2019-02-09T12:05:55.750Z,65.87
2019-02-09T12:08:26.076Z,65.86
2019-02-09T12:10:56.057Z,65.86
2019-02-09T12:13:25.605Z,66.01
2019-02-09T12:15:58.589Z,66.05
2019-02-09T12:18:30.617Z,66.05
2019-02-09T12:21:00.412Z,66.36
2019-02-09T12:23:30.227Z,66.36
2019-02-09T12:26:01.126Z,64.62
2019-02-09T12:28:31.506Z,64.62
2019-02-09T12:31:01.430Z,65.28
2019-02-09T12:33:37.342Z,65.75
2019-02-09T12:36:12.092Z,64.87
2019-02-09T12:38:41.458Z,66.02
2019-02-09T12:41:11.099Z,65.89
2019-02-09T12:43:40.739Z,65.24
2019-02-09T12:46:12.185Z,65.41
2019-02-09T12:48:41.672Z,65.41
2019-02-09T12:51:11.119Z,65.01
2019-02-09T12:53:40.470Z,65.01
2019-02-09T12:56:12.872Z,65.54
2019-02-09T12:58:42.254Z,65.90
2019-02-09T13:01:11.891Z,66.76
2019-02-09T13:03:41.655Z,69.07
2019-02-09T13:06:14.526Z,69.07
2019-02-09T13:08:44.246Z,70.56
2019-02-09T13:11:14.181Z,71.16
2019-02-09T13:13:44.339Z,69.29
2019-02-09T13:16:13.870Z,69.59
2019-02-09T13:18:46.240Z,68.84
2019-02-09T13:21:20.316Z,68.02
2019-02-09T13:23:55.162Z,68.02
2019-02-09T13:26:28.162Z,67.53
2019-02-09T13:28:58.103Z,67.53
2019-02-09T13:31:28.585Z,66.93
2019-02-09T13:33:58.390Z,67.13
2019-02-09T13:36:30.648Z,66.72
2019-02-09T13:39:01.030Z,66.98
2019-02-09T13:41:35.861Z,66.98
2019-02-09T13:44:06.148Z,66.75
2019-02-09T13:46:36.340Z,66.75
2019-02-09T13:49:07.259Z,66.36
2019-02-09T13:51:39.187Z,65.83
2019-02-09T13:54:10.175Z,65.66
2019-02-09T13:56:40.015Z,65.41
2019-02-09T13:59:10.209Z,65.54
2019-02-09T14:01:44.950Z,62.82
2019-02-09T14:04:15.242Z,63.51
2019-02-09T14:06:45.137Z,61.55
2019-02-09T14:09:20.013Z,62.53
2019-02-09T14:11:50.271Z,62.87
2019-02-09T14:14:20.532Z,61.24
2019-02-09T14:16:50.606Z,61.24
2019-02-09T14:19:26.020Z,61.54
2019-02-09T14:21:55.746Z,59.35
2019-02-09T14:24:25.513Z,59.87
2019-02-09T14:26:55.284Z,59.32
2019-02-09T14:29:26.429Z,59.32
2019-02-09T14:32:02.386Z,59.36
2019-02-09T14:34:39.794Z,60.76
2019-02-09T14:37:10.104Z,60.76
2019-02-09T14:39:39.789Z,61.25
2019-02-09T14:42:14.322Z,61.25
2019-02-09T14:44:44.103Z,61.88
2019-02-09T14:47:14.413Z,61.82
2019-02-09T14:49:43.942Z,61.78
2019-02-09T14:52:14.066Z,61.99
2019-02-09T14:54:47.993Z,61.99
2019-02-09T14:57:24.200Z,62.96
2019-02-09T14:59:57.396Z,62.70
2019-02-09T15:02:29.612Z,64.33
2019-02-09T15:05:02.953Z,64.33
2019-02-09T15:07:37.187Z,65.74
2019-02-09T15:10:12.074Z,68.40
2019-02-09T15:12:41.650Z,72.67
2019-02-09T15:15:24.007Z,79.19
2019-02-09T15:17:53.575Z,78.46
2019-02-09T15:20:26.141Z,78.46
2019-02-09T15:22:55.688Z,79.53
2019-02-09T15:25:25.942Z,79.90
2019-02-09T15:27:55.682Z,81.57
2019-02-09T15:30:26.119Z,81.57
2019-02-09T15:32:55.652Z,81.12
2019-02-09T15:35:25.616Z,80.96
2019-02-09T15:37:57.964Z,80.83
2019-02-09T15:40:29.441Z,81.56
2019-02-09T15:43:00.487Z,81.44
2019-02-09T15:45:30.624Z,81.44
2019-02-09T15:48:00.168Z,79.08
2019-02-09T15:50:31.978Z,79.12
2019-02-09T15:53:06.728Z,78.51
2019-02-09T15:55:37.138Z,79.06
2019-02-09T15:58:06.872Z,78.99
2019-02-09T16:00:36.488Z,77.92
2019-02-09T16:03:06.280Z,77.17
2019-02-09T16:05:36.831Z,77.17
2019-02-09T16:08:06.396Z,76.82
2019-02-09T16:10:39.550Z,76.84
2019-02-09T16:13:12.980Z,76.84
2019-02-09T16:15:42.991Z,75.01
2019-02-09T16:18:19.193Z,75.01
2019-02-09T16:20:55.649Z,74.77
2019-02-09T16:23:27.691Z,74.77
2019-02-09T16:25:57.290Z,75.45
2019-02-09T16:28:29.305Z,75.45
2019-02-09T16:31:02.053Z,74.37
2019-02-09T16:33:33.319Z,75.08
2019-02-09T16:36:03.249Z,73.43
2019-02-09T16:38:36.118Z,72.50
2019-02-09T16:41:09.322Z,72.50
2019-02-09T16:43:42.105Z,73.44
2019-02-09T16:46:11.841Z,73.58
2019-02-09T16:48:41.805Z,73.58
2019-02-09T16:51:11.772Z,73.89
2019-02-09T16:53:49.925Z,73.14
2019-02-09T16:56:22.003Z,72.49
2019-02-09T16:58:51.681Z,71.71
2019-02-09T17:01:21.531Z,72.70
2019-02-09T17:03:52.272Z,72.70
2019-02-09T17:06:26.819Z,71.28
2019-02-09T17:08:57.685Z,71.41
2019-02-09T17:11:30.871Z,71.72
2019-02-09T17:14:03.335Z,70.64
2019-02-09T17:16:33.990Z,70.64
2019-02-09T17:19:07.071Z,70.81
2019-02-09T17:21:37.188Z,71.30
2019-02-09T17:24:06.653Z,70.66
2019-02-09T17:26:36.457Z,70.66
2019-02-09T17:29:08.704Z,70.70
2019-02-09T17:31:38.409Z,70.70
2019-02-09T17:34:11.774Z,70.13
2019-02-09T17:36:49.749Z,70.10
2019-02-09T17:39:23.679Z,70.10
2019-02-09T17:41:54.181Z,70.21
2019-02-09T17:44:23.489Z,70.62
2019-02-09T17:46:53.319Z,70.62
2019-02-09T17:49:22.819Z,69.42
2019-02-09T17:51:52.309Z,69.21
2019-02-09T17:54:24.607Z,69.96
2019-02-09T17:56:55.757Z,69.62
2019-02-09T17:59:30.397Z,69.66
2019-02-09T18:02:02.039Z,69.66
2019-02-09T18:04:32.181Z,70.28
2019-02-09T18:07:04.489Z,69.91
2019-02-09T18:09:37.373Z,69.91
2019-02-09T18:12:07.962Z,70.00
2019-02-09T18:14:37.650Z,70.00
2019-02-09T18:17:08.233Z,69.74
2019-02-09T18:19:40.774Z,70.90
2019-02-09T18:22:10.724Z,70.52
2019-02-09T18:24:40.222Z,70.64
2019-02-09T18:27:09.767Z,70.52
2019-02-09T18:29:39.541Z,70.52
2019-02-09T18:32:09.623Z,71.24
2019-02-09T18:34:39.099Z,71.53
2019-02-09T18:37:08.712Z,71.53
2019-02-09T18:39:41.143Z,71.45
2019-02-09T18:42:15.466Z,71.45
2019-02-09T18:44:49.027Z,71.32
2019-02-09T18:47:19.010Z,71.32
2019-02-09T18:49:54.603Z,71.37
2019-02-09T18:52:24.296Z,71.40
2019-02-09T18:54:54.175Z,71.78
2019-02-09T18:57:23.680Z,71.74
2019-02-09T18:59:55.401Z,71.61
2019-02-09T19:02:25.037Z,71.61
2019-02-09T19:04:54.930Z,71.90
2019-02-09T19:07:27.135Z,71.90
2019-02-09T19:10:01.113Z,71.88
2019-02-09T19:12:30.682Z,72.54
2019-02-09T19:15:00.195Z,72.48
2019-02-09T19:17:30.100Z,72.48
2019-02-09T19:19:59.606Z,73.14
2019-02-09T19:22:29.087Z,73.14
2019-02-09T19:24:58.525Z,72.90
2019-02-09T19:27:28.674Z,72.90
2019-02-09T19:29:58.763Z,73.46
2019-02-09T19:32:28.437Z,73.05
2019-02-09T19:34:58.385Z,73.05
2019-02-09T19:37:28.122Z,73.02
2019-02-09T19:40:15.230Z,73.66
2019-02-09T19:42:47.168Z,73.66
2019-02-09T19:45:24.655Z,73.88
2019-02-09T19:47:54.269Z,74.33
2019-02-09T19:50:27.145Z,74.45
2019-02-09T19:52:59.825Z,74.47
2019-02-09T19:55:30.791Z,74.47
2019-02-09T19:58:00.649Z,74.78
2019-02-09T20:00:33.191Z,73.44
2019-02-09T20:03:03.087Z,73.29
2019-02-09T20:05:33.188Z,73.61
2019-02-09T20:08:07.079Z,73.70
2019-02-09T20:10:41.732Z,73.99
2019-02-09T20:13:11.703Z,74.15
2019-02-09T20:15:41.590Z,74.15
2019-02-09T20:18:14.188Z,73.68
2019-02-09T20:20:47.370Z,74.60
2019-02-09T20:23:16.659Z,74.16
2019-02-09T20:25:50.125Z,74.58
2019-02-09T20:28:19.790Z,74.58
2019-02-09T20:30:49.208Z,74.75
2019-02-09T20:33:18.714Z,75.02
2019-02-09T20:35:48.161Z,74.81
2019-02-09T20:38:19.979Z,74.81
2019-02-09T20:40:54.459Z,74.91
2019-02-09T20:43:24.796Z,75.21
2019-02-09T20:45:54.423Z,75.37
2019-02-09T20:48:27.331Z,76.04
2019-02-09T20:50:56.727Z,76.11
2019-02-09T20:53:27.213Z,75.71
2019-02-09T20:55:56.803Z,76.20
2019-02-09T20:58:27.334Z,76.44
2019-02-09T21:00:57.021Z,76.44
2019-02-09T21:03:28.878Z,75.62
2019-02-09T21:05:58.223Z,76.18
2019-02-09T21:08:33.758Z,76.49
2019-02-09T21:11:03.431Z,76.31
2019-02-09T21:13:49.000Z,76.31
2019-02-09T21:16:18.670Z,76.30
2019-02-09T21:18:50.535Z,76.44
2019-02-09T21:21:20.684Z,76.18
2019-02-09T21:23:52.641Z,76.28
2019-02-09T21:26:22.016Z,76.88
2019-02-09T21:28:52.172Z,76.70
2019-02-09T21:31:22.778Z,76.70
2019-02-09T21:33:58.265Z,76.65
2019-02-09T21:36:27.918Z,76.65
2019-02-09T21:39:00.602Z,76.13
2019-02-09T21:41:30.741Z,76.82
2019-02-09T21:44:07.154Z,77.07
2019-02-09T21:46:40.183Z,76.69
2019-02-09T21:49:12.270Z,77.37
2019-02-09T21:51:42.014Z,77.23
2019-02-09T21:54:12.711Z,77.23
2019-02-09T21:56:45.133Z,77.28
2019-02-09T21:59:17.954Z,77.49
2019-02-09T22:01:47.817Z,77.49
2019-02-09T22:04:17.340Z,77.89
2019-02-09T22:06:47.752Z,77.51
2019-02-09T22:09:17.329Z,77.42
2019-02-09T22:11:47.119Z,78.16
2019-02-09T22:14:17.194Z,77.72
2019-02-09T22:16:48.409Z,78.06
2019-02-09T22:19:17.949Z,78.06
2019-02-09T22:21:49.819Z,78.44
2019-02-09T22:24:19.820Z,78.14
2019-02-09T22:26:49.420Z,78.37
2019-02-09T22:29:21.291Z,78.37
2019-02-09T22:31:52.022Z,78.33
2019-02-09T22:34:21.635Z,78.50
2019-02-09T22:36:51.150Z,78.50
2019-02-09T22:39:20.736Z,78.50
2019-02-09T22:41:51.355Z,78.85
2019-02-09T22:44:21.871Z,78.55
2019-02-09T22:46:52.561Z,78.50
2019-02-09T22:49:28.072Z,78.41
2019-02-09T22:51:57.733Z,78.83
2019-02-09T22:54:27.258Z,78.79
2019-02-09T22:56:57.885Z,78.79
2019-02-09T22:59:28.286Z,78.98
2019-02-09T23:01:59.101Z,78.87
2019-02-09T23:05:15.141Z,79.18
2019-02-09T23:07:51.060Z,79.46
2019-02-09T23:10:20.822Z,79.46
2019-02-09T23:12:51.914Z,79.71
2019-02-09T23:15:21.636Z,79.65
2019-02-09T23:17:51.755Z,79.65
2019-02-09T23:20:21.323Z,79.58
2019-02-09T23:22:51.361Z,79.39
2019-02-09T23:25:22.704Z,80.03
2019-02-09T23:27:53.399Z,80.36
2019-02-09T23:30:23.096Z,79.64
2019-02-09T23:32:56.320Z,79.64
2019-02-09T23:35:29.633Z,79.82
2019-02-09T23:37:59.712Z,80.03
2019-02-09T23:40:29.628Z,80.21
2019-02-09T23:43:01.835Z,80.21
2019-02-09T23:45:32.871Z,79.82
2019-02-09T23:48:02.344Z,80.45
2019-02-09T23:50:32.438Z,80.45
2019-02-09T23:53:02.052Z,80.45
2019-02-09T23:55:32.175Z,80.63
2019-02-09T23:58:01.935Z,80.45
